sensor_id;sensor_type;location;lat;lon;timestamp;pressure;altitude;pressure_sealevel;temperature;humidity
60307;BME280;46155;52.364;6.580;2023-04-15T03:02:49;100726.41;;;5.30;100.00
60307;BME280;46155;52.364;6.580;2023-04-15T03:05:20;100732.56;;;5.20;100.00
60307;BME280;46155;52.364;6.580;2023-04-15T03:07:45;100734.41;;;5.21;100.00
60307;BME280;46155;52.364;6.580;2023-04-15T03:10:11;100724.63;;;5.18;100.00
60307;BME280;46155;52.364;6.580;2023-04-15T03:12:36;100733.72;;;5.24;100.00
60307;BME280;46155;52.364;6.580;2023-04-15T03:15:02;100730.78;;;5.19;100.00
60307;BME280;46155;52.364;6.580;2023-04-15T03:17:27;100737.53;;;5.17;100.00
60307;BME280;46155;52.364;6.580;2023-04-15T03:19:52;100737.41;;;5.15;100.00
60307;BME280;46155;52.364;6.580;2023-04-15T03:22:18;100732.97;;;5.14;100.00
60307;BME280;46155;52.364;6.580;2023-04-15T03:24:43;100742.72;;;5.17;100.00
60307;BME280;46155;52.364;6.580;2023-04-15T03:27:08;100744.56;;;5.18;100.00
60307;BME280;46155;52.364;6.580;2023-04-15T03:29:34;100741.97;;;5.18;100.00
60307;BME280;46155;52.364;6.580;2023-04-15T03:31:59;100740.53;;;5.22;100.00
60307;BME280;46155;52.364;6.580;2023-04-15T03:34:25;100743.91;;;5.21;100.00
60307;BME280;46155;52.364;6.580;2023-04-15T03:36:50;100743.13;;;5.11;100.00
60307;BME280;46155;52.364;6.580;2023-04-15T03:39:16;100735.63;;;5.04;100.00
60307;BME280;46155;52.364;6.580;2023-04-15T03:41:41;100753.56;;;5.11;100.00
60307;BME280;46155;52.364;6.580;2023-04-15T03:44:06;100750.19;;;5.12;100.00
60307;BME280;46155;52.364;6.580;2023-04-15T03:46:32;100755.38;;;5.12;100.00
60307;BME280;46155;52.364;6.580;2023-04-15T03:48:57;100752.25;;;5.16;100.00
60307;BME280;46155;52.364;6.580;2023-04-15T03:51:23;100746.63;;;5.22;100.00
60307;BME280;46155;52.364;6.580;2023-04-15T03:53:48;100758.59;;;5.20;100.00
60307;BME280;46155;52.364;6.580;2023-04-15T03:56:13;100761.47;;;5.23;100.00
60307;BME280;46155;52.364;6.580;2023-04-15T03:58:39;100757.94;;;5.23;100.00
60307;BME280;46155;52.364;6.580;2023-04-15T04:01:04;100767.34;;;5.21;100.00
60307;BME280;46155;52.364;6.580;2023-04-15T04:03:30;100766.41;;;5.20;100.00
60307;BME280;46155;52.364;6.580;2023-04-15T04:05:55;100772.41;;;5.19;100.00
60307;BME280;46155;52.364;6.580;2023-04-15T04:08:21;100764.22;;;5.14;100.00
60307;BME280;46155;52.364;6.580;2023-04-15T04:10:46;100775.66;;;5.16;100.00
60307;BME280;46155;52.364;6.580;2023-04-15T04:13:11;100780.91;;;5.06;100.00
60307;BME280;46155;52.364;6.580;2023-04-15T04:15:37;100774.56;;;4.92;100.00
60307;BME280;46155;52.364;6.580;2023-04-15T04:18:02;100787.56;;;4.92;100.00
60307;BME280;46155;52.364;6.580;2023-04-15T04:20:27;100789.81;;;4.88;100.00
60307;BME280;46155;52.364;6.580;2023-04-15T04:22:53;100788.38;;;4.81;100.00
60307;BME280;46155;52.364;6.580;2023-04-15T04:25:18;100771.38;;;4.54;100.00
60307;BME280;46155;52.364;6.580;2023-04-15T04:27:43;100792.28;;;4.65;100.00
60307;BME280;46155;52.364;6.580;2023-04-15T04:30:10;100803.34;;;4.63;100.00
60307;BME280;46155;52.364;6.580;2023-04-15T04:32:35;100804.09;;;4.62;100.00
60307;BME280;46155;52.364;6.580;2023-04-15T04:35:00;100804.91;;;4.61;100.00
60307;BME280;46155;52.364;6.580;2023-04-15T04:37:26;100807.88;;;4.65;100.00
60307;BME280;46155;52.364;6.580;2023-04-15T04:39:51;100805.78;;;4.72;100.00
60307;BME280;46155;52.364;6.580;2023-04-15T04:42:16;100812.44;;;4.78;100.00
60307;BME280;46155;52.364;6.580;2023-04-15T04:44:41;100808.72;;;5.07;100.00
60307;BME280;46155;52.364;6.580;2023-04-15T04:47:07;100806.00;;;5.06;100.00
60307;BME280;46155;52.364;6.580;2023-04-15T04:49:32;100809.53;;;4.96;100.00
60307;BME280;46155;52.364;6.580;2023-04-15T04:51:58;100818.25;;;4.86;100.00
60307;BME280;46155;52.364;6.580;2023-04-15T04:54:24;100815.03;;;4.78;100.00
60307;BME280;46155;52.364;6.580;2023-04-15T04:56:50;100817.09;;;4.82;100.00
60307;BME280;46155;52.364;6.580;2023-04-15T04:59:15;100805.91;;;4.94;100.00
60307;BME280;46155;52.364;6.580;2023-04-15T05:01:41;100812.53;;;5.00;100.00
60307;BME280;46155;52.364;6.580;2023-04-15T05:04:06;100808.00;;;4.77;100.00
60307;BME280;46155;52.364;6.580;2023-04-15T05:06:32;100821.53;;;4.63;100.00
60307;BME280;46155;52.364;6.580;2023-04-15T05:08:57;100818.69;;;4.60;100.00
60307;BME280;46155;52.364;6.580;2023-04-15T05:11:23;100819.97;;;4.75;100.00
60307;BME280;46155;52.364;6.580;2023-04-15T05:13:48;100811.25;;;4.85;100.00
60307;BME280;46155;52.364;6.580;2023-04-15T05:16:13;100820.72;;;4.85;100.00
60307;BME280;46155;52.364;6.580;2023-04-15T05:18:39;100827.25;;;4.79;100.00
60307;BME280;46155;52.364;6.580;2023-04-15T05:21:04;100824.13;;;4.63;100.00
60307;BME280;46155;52.364;6.580;2023-04-15T05:23:30;100833.25;;;4.68;100.00
60307;BME280;46155;52.364;6.580;2023-04-15T05:25:55;100825.59;;;4.59;100.00
60307;BME280;46155;52.364;6.580;2023-04-15T05:28:20;100833.22;;;4.47;100.00
60307;BME280;46155;52.364;6.580;2023-04-15T05:30:45;100832.72;;;4.41;100.00
60307;BME280;46155;52.364;6.580;2023-04-15T05:33:11;100842.19;;;4.41;100.00
60307;BME280;46155;52.364;6.580;2023-04-15T05:35:36;100842.22;;;4.51;100.00
60307;BME280;46155;52.364;6.580;2023-04-15T05:38:01;100838.84;;;4.62;100.00
60307;BME280;46155;52.364;6.580;2023-04-15T05:40:27;100846.25;;;4.68;100.00
60307;BME280;46155;52.364;6.580;2023-04-15T05:42:54;100860.53;;;4.73;100.00
60307;BME280;46155;52.364;6.580;2023-04-15T05:45:19;100856.66;;;4.68;100.00
60307;BME280;46155;52.364;6.580;2023-04-15T05:47:45;100861.06;;;4.69;100.00
60307;BME280;46155;52.364;6.580;2023-04-15T05:50:10;100869.41;;;4.65;100.00
60307;BME280;46155;52.364;6.580;2023-04-15T05:52:36;100866.00;;;4.66;100.00
60307;BME280;46155;52.364;6.580;2023-04-15T05:55:01;100876.66;;;4.69;100.00
60307;BME280;46155;52.364;6.580;2023-04-15T05:57:26;100876.13;;;4.63;100.00
60307;BME280;46155;52.364;6.580;2023-04-15T05:59:52;100879.41;;;4.71;100.00
60307;BME280;46155;52.364;6.580;2023-04-15T06:02:17;100884.63;;;4.71;100.00
60307;BME280;46155;52.364;6.580;2023-04-15T06:04:43;100881.34;;;4.63;100.00
60307;BME280;46155;52.364;6.580;2023-04-15T06:07:08;100890.97;;;4.74;100.00
60307;BME280;46155;52.364;6.580;2023-04-15T06:09:34;100889.44;;;4.76;100.00
60307;BME280;46155;52.364;6.580;2023-04-15T06:12:00;100901.88;;;4.80;100.00
60307;BME280;46155;52.364;6.580;2023-04-15T06:14:26;100902.81;;;4.81;100.00
60307;BME280;46155;52.364;6.580;2023-04-15T06:16:51;100911.78;;;4.85;100.00
60307;BME280;46155;52.364;6.580;2023-04-15T06:19:17;100915.31;;;4.85;100.00
60307;BME280;46155;52.364;6.580;2023-04-15T06:21:43;100919.06;;;4.89;100.00
60307;BME280;46155;52.364;6.580;2023-04-15T06:24:08;100910.97;;;5.47;100.00
60307;BME280;46155;52.364;6.580;2023-04-15T06:26:33;100919.06;;;5.40;100.00
60307;BME280;46155;52.364;6.580;2023-04-15T06:28:59;100903.28;;;5.39;100.00
60307;BME280;46155;52.364;6.580;2023-04-15T06:31:24;100901.06;;;5.33;100.00
60307;BME280;46155;52.364;6.580;2023-04-15T06:33:50;100919.44;;;5.34;100.00
60307;BME280;46155;52.364;6.580;2023-04-15T06:36:15;100907.22;;;5.33;100.00
60307;BME280;46155;52.364;6.580;2023-04-15T06:38:40;100922.13;;;5.57;100.00
60307;BME280;46155;52.364;6.580;2023-04-15T06:41:06;100921.84;;;5.74;100.00
60307;BME280;46155;52.364;6.580;2023-04-15T06:43:31;100913.38;;;5.66;100.00
60307;BME280;46155;52.364;6.580;2023-04-15T06:45:57;100927.41;;;5.79;100.00
60307;BME280;46155;52.364;6.580;2023-04-15T06:48:23;100924.41;;;5.84;100.00
60307;BME280;46155;52.364;6.580;2023-04-15T06:50:48;100928.78;;;5.96;100.00
60307;BME280;46155;52.364;6.580;2023-04-15T06:53:13;100931.38;;;6.06;100.00
60307;BME280;46155;52.364;6.580;2023-04-15T06:55:39;100932.59;;;6.22;100.00
60307;BME280;46155;52.364;6.580;2023-04-15T06:58:05;100935.41;;;6.35;100.00
60307;BME280;46155;52.364;6.580;2023-04-15T07:00:31;100931.28;;;6.27;100.00
60307;BME280;46155;52.364;6.580;2023-04-15T07:02:57;100932.38;;;6.18;100.00
60307;BME280;46155;52.364;6.580;2023-04-15T07:05:23;100929.53;;;6.15;100.00
60307;BME280;46155;52.364;6.580;2023-04-15T07:07:49;100929.81;;;6.08;100.00
60307;BME280;46155;52.364;6.580;2023-04-15T07:10:15;100945.66;;;6.22;100.00
60307;BME280;46155;52.364;6.580;2023-04-15T07:12:40;100950.81;;;6.32;100.00
60307;BME280;46155;52.364;6.580;2023-04-15T07:15:06;100951.97;;;6.35;100.00
60307;BME280;46155;52.364;6.580;2023-04-15T07:17:31;100945.69;;;6.44;100.00
60307;BME280;46155;52.364;6.580;2023-04-15T07:19:57;100950.81;;;6.54;100.00
60307;BME280;46155;52.364;6.580;2023-04-15T07:22:22;100958.94;;;6.69;100.00
60307;BME280;46155;52.364;6.580;2023-04-15T07:24:48;100957.19;;;6.80;100.00
60307;BME280;46155;52.364;6.580;2023-04-15T07:27:13;100960.81;;;6.82;100.00
60307;BME280;46155;52.364;6.580;2023-04-15T07:29:38;100959.91;;;6.81;100.00
60307;BME280;46155;52.364;6.580;2023-04-15T07:32:04;100973.13;;;6.95;100.00
60307;BME280;46155;52.364;6.580;2023-04-15T07:34:29;100971.06;;;6.91;100.00
60307;BME280;46155;52.364;6.580;2023-04-15T07:36:55;100975.56;;;6.81;100.00
60307;BME280;46155;52.364;6.580;2023-04-15T07:39:20;100966.72;;;6.79;100.00
60307;BME280;46155;52.364;6.580;2023-04-15T07:41:46;100981.75;;;6.94;100.00
60307;BME280;46155;52.364;6.580;2023-04-15T07:44:12;100970.16;;;6.90;100.00
60307;BME280;46155;52.364;6.580;2023-04-15T07:46:38;100987.44;;;7.00;100.00
60307;BME280;46155;52.364;6.580;2023-04-15T07:49:03;100972.31;;;6.96;100.00
60307;BME280;46155;52.364;6.580;2023-04-15T07:51:28;100969.69;;;6.84;100.00
60307;BME280;46155;52.364;6.580;2023-04-15T07:53:54;100993.03;;;6.82;100.00
60307;BME280;46155;52.364;6.580;2023-04-15T07:56:20;100981.31;;;6.77;100.00
60307;BME280;46155;52.364;6.580;2023-04-15T07:58:46;100999.25;;;6.95;100.00
60307;BME280;46155;52.364;6.580;2023-04-15T08:01:11;100992.50;;;6.86;100.00
60307;BME280;46155;52.364;6.580;2023-04-15T08:03:37;100997.00;;;7.11;100.00
60307;BME280;46155;52.364;6.580;2023-04-15T08:06:03;100999.09;;;6.93;100.00
60307;BME280;46155;52.364;6.580;2023-04-15T08:08:28;101005.56;;;6.86;100.00
60307;BME280;46155;52.364;6.580;2023-04-15T08:10:54;101002.94;;;6.86;100.00
60307;BME280;46155;52.364;6.580;2023-04-15T08:13:19;101008.31;;;7.00;100.00
60307;BME280;46155;52.364;6.580;2023-04-15T08:15:45;100991.25;;;7.15;100.00
60307;BME280;46155;52.364;6.580;2023-04-15T08:18:10;100983.88;;;7.21;100.00
60307;BME280;46155;52.364;6.580;2023-04-15T08:20:36;101004.16;;;7.36;100.00
60307;BME280;46155;52.364;6.580;2023-04-15T08:23:02;101013.31;;;7.31;100.00
60307;BME280;46155;52.364;6.580;2023-04-15T08:25:27;101005.69;;;7.22;100.00
60307;BME280;46155;52.364;6.580;2023-04-15T08:27:56;100983.00;;;7.33;100.00
60307;BME280;46155;52.364;6.580;2023-04-15T08:30:21;100999.22;;;7.63;100.00
60307;BME280;46155;52.364;6.580;2023-04-15T08:32:49;101004.22;;;7.83;100.00
60307;BME280;46155;52.364;6.580;2023-04-15T08:35:14;101008.09;;;7.88;100.00
60307;BME280;46155;52.364;6.580;2023-04-15T08:37:39;100999.69;;;7.92;100.00
60307;BME280;46155;52.364;6.580;2023-04-15T08:40:05;101009.81;;;8.00;100.00
60307;BME280;46155;52.364;6.580;2023-04-15T08:42:36;101013.31;;;8.12;100.00
60307;BME280;46155;52.364;6.580;2023-04-15T08:45:08;101010.13;;;8.16;100.00
60307;BME280;46155;52.364;6.580;2023-04-15T08:47:36;101010.78;;;8.14;100.00
60307;BME280;46155;52.364;6.580;2023-04-15T08:50:03;101012.03;;;8.31;100.00
60307;BME280;46155;52.364;6.580;2023-04-15T08:52:30;101025.22;;;8.44;100.00
60307;BME280;46155;52.364;6.580;2023-04-15T08:54:56;101018.53;;;8.36;100.00
60307;BME280;46155;52.364;6.580;2023-04-15T08:57:26;101032.41;;;8.58;100.00
60307;BME280;46155;52.364;6.580;2023-04-15T08:59:54;101019.56;;;8.26;100.00
60307;BME280;46155;52.364;6.580;2023-04-15T09:02:20;101023.31;;;8.30;100.00
60307;BME280;46155;52.364;6.580;2023-04-15T09:04:46;101036.84;;;8.12;100.00
60307;BME280;46155;52.364;6.580;2023-04-15T09:07:11;101047.88;;;8.08;100.00
60307;BME280;46155;52.364;6.580;2023-04-15T09:09:36;101046.75;;;8.28;100.00
60307;BME280;46155;52.364;6.580;2023-04-15T09:12:04;101040.25;;;8.35;100.00
60307;BME280;46155;52.364;6.580;2023-04-15T09:14:29;101049.34;;;8.40;100.00
60307;BME280;46155;52.364;6.580;2023-04-15T09:17:01;101062.44;;;8.40;100.00
60307;BME280;46155;52.364;6.580;2023-04-15T09:19:27;101055.38;;;8.39;100.00
60307;BME280;46155;52.364;6.580;2023-04-15T09:21:54;101059.16;;;8.66;100.00
60307;BME280;46155;52.364;6.580;2023-04-15T09:24:21;101059.25;;;8.68;100.00
60307;BME280;46155;52.364;6.580;2023-04-15T09:26:47;101059.00;;;8.76;100.00
60307;BME280;46155;52.364;6.580;2023-04-15T09:29:16;101060.13;;;8.80;100.00
60307;BME280;46155;52.364;6.580;2023-04-15T09:31:42;101059.22;;;8.79;100.00
60307;BME280;46155;52.364;6.580;2023-04-15T09:34:08;101069.00;;;8.82;100.00
60307;BME280;46155;52.364;6.580;2023-04-15T09:39:11;101073.94;;;9.03;100.00
60307;BME280;46155;52.364;6.580;2023-04-15T09:41:36;101058.59;;;8.95;100.00
60307;BME280;46155;52.364;6.580;2023-04-15T09:44:03;101065.50;;;9.07;100.00
60307;BME280;46155;52.364;6.580;2023-04-15T09:46:44;101072.38;;;9.05;100.00
60307;BME280;46155;52.364;6.580;2023-04-15T09:49:10;101069.63;;;9.03;100.00
60307;BME280;46155;52.364;6.580;2023-04-15T09:51:37;101082.38;;;8.99;100.00
60307;BME280;46155;52.364;6.580;2023-04-15T09:54:02;101078.75;;;8.96;100.00
60307;BME280;46155;52.364;6.580;2023-04-15T09:56:35;101088.34;;;8.96;100.00
60307;BME280;46155;52.364;6.580;2023-04-15T09:59:04;101098.81;;;8.84;100.00
60307;BME280;46155;52.364;6.580;2023-04-15T10:01:30;101092.84;;;8.99;100.00
60307;BME280;46155;52.364;6.580;2023-04-15T10:03:56;101092.84;;;8.99;100.00
60307;BME280;46155;52.364;6.580;2023-04-15T10:06:22;101090.00;;;9.07;100.00
60307;BME280;46155;52.364;6.580;2023-04-15T10:08:50;101096.56;;;9.14;100.00
60307;BME280;46155;52.364;6.580;2023-04-15T10:11:17;101101.28;;;9.06;100.00
60307;BME280;46155;52.364;6.580;2023-04-15T10:13:43;101089.19;;;9.08;100.00
60307;BME280;46155;52.364;6.580;2023-04-15T10:16:18;101100.59;;;9.09;100.00
60307;BME280;46155;52.364;6.580;2023-04-15T10:18:45;101106.56;;;8.94;100.00
60307;BME280;46155;52.364;6.580;2023-04-15T10:21:10;101100.50;;;9.07;100.00
60307;BME280;46155;52.364;6.580;2023-04-15T10:23:38;101105.94;;;9.10;100.00
60307;BME280;46155;52.364;6.580;2023-04-15T10:26:04;101106.25;;;9.15;100.00
60307;BME280;46155;52.364;6.580;2023-04-15T10:28:30;101110.34;;;9.23;100.00
60307;BME280;46155;52.364;6.580;2023-04-15T10:30:56;101113.06;;;9.25;100.00
60307;BME280;46155;52.364;6.580;2023-04-15T10:33:23;101105.69;;;9.19;100.00
60307;BME280;46155;52.364;6.580;2023-04-15T10:35:50;101115.63;;;9.11;100.00
60307;BME280;46155;52.364;6.580;2023-04-15T10:38:38;101119.56;;;9.18;100.00
60307;BME280;46155;52.364;6.580;2023-04-15T10:41:23;101108.19;;;9.18;100.00
60307;BME280;46155;52.364;6.580;2023-04-15T10:46:35;101116.69;;;9.27;100.00
60307;BME280;46155;52.364;6.580;2023-04-15T10:49:15;101125.13;;;9.35;100.00
60307;BME280;46155;52.364;6.580;2023-04-15T10:51:51;101116.31;;;9.09;100.00
60307;BME280;46155;52.364;6.580;2023-04-15T10:59:31;101132.84;;;8.84;100.00
60307;BME280;46155;52.364;6.580;2023-04-15T11:02:04;101132.53;;;8.79;100.00
60307;BME280;46155;52.364;6.580;2023-04-15T11:04:52;101137.28;;;8.85;100.00
60307;BME280;46155;52.364;6.580;2023-04-15T11:12:41;101140.88;;;9.23;100.00
60307;BME280;46155;52.364;6.580;2023-04-15T11:17:59;101137.38;;;9.47;99.77
60307;BME280;46155;52.364;6.580;2023-04-15T11:20:32;101129.81;;;9.52;100.00
60307;BME280;46155;52.364;6.580;2023-04-15T11:22:58;101133.75;;;9.34;99.02
60307;BME280;46155;52.364;6.580;2023-04-15T11:25:31;101135.84;;;9.51;99.74
60307;BME280;46155;52.364;6.580;2023-04-15T11:27:58;101147.94;;;9.49;98.33
60307;BME280;46155;52.364;6.580;2023-04-15T11:30:26;101150.94;;;9.42;98.29
60307;BME280;46155;52.364;6.580;2023-04-15T11:32:53;101141.78;;;9.74;99.69
60307;BME280;46155;52.364;6.580;2023-04-15T11:35:19;101145.34;;;9.74;96.61
60307;BME280;46155;52.364;6.580;2023-04-15T11:37:45;101157.59;;;9.62;97.99
60307;BME280;46155;52.364;6.580;2023-04-15T11:40:11;101150.75;;;9.64;98.42
60307;BME280;46155;52.364;6.580;2023-04-15T11:42:37;101151.09;;;9.82;99.96
60307;BME280;46155;52.364;6.580;2023-04-15T11:45:10;101155.44;;;9.56;98.05
60307;BME280;46155;52.364;6.580;2023-04-15T11:47:40;101152.75;;;9.68;99.25
60307;BME280;46155;52.364;6.580;2023-04-15T11:52:51;101145.66;;;9.79;95.89
60307;BME280;46155;52.364;6.580;2023-04-15T11:55:16;101159.19;;;9.85;96.78
60307;BME280;46155;52.364;6.580;2023-04-15T11:57:41;101164.75;;;9.90;97.11
60307;BME280;46155;52.364;6.580;2023-04-15T12:00:09;101164.38;;;9.97;96.40
60307;BME280;46155;52.364;6.580;2023-04-15T12:02:35;101163.31;;;10.07;96.26
60307;BME280;46155;52.364;6.580;2023-04-15T12:05:05;101152.44;;;9.89;94.83
60307;BME280;46155;52.364;6.580;2023-04-15T12:07:30;101174.56;;;9.92;95.33
60307;BME280;46155;52.364;6.580;2023-04-15T12:09:56;101175.78;;;9.97;95.34
60307;BME280;46155;52.364;6.580;2023-04-15T12:12:28;101178.47;;;9.86;96.06
60307;BME280;46155;52.364;6.580;2023-04-15T12:14:57;101173.13;;;9.84;96.95
60307;BME280;46155;52.364;6.580;2023-04-15T12:17:24;101181.56;;;9.80;96.54
60307;BME280;46155;52.364;6.580;2023-04-15T12:19:55;101182.78;;;9.85;96.77
60307;BME280;46155;52.364;6.580;2023-04-15T12:22:20;101193.94;;;9.94;97.42
60307;BME280;46155;52.364;6.580;2023-04-15T12:24:46;101198.75;;;9.88;97.24
60307;BME280;46155;52.364;6.580;2023-04-15T12:27:15;101191.94;;;9.78;96.60
60307;BME280;46155;52.364;6.580;2023-04-15T12:29:42;101198.78;;;9.76;97.67
60307;BME280;46155;52.364;6.580;2023-04-15T12:32:17;101214.97;;;9.82;98.15
60307;BME280;46155;52.364;6.580;2023-04-15T12:34:52;101214.41;;;9.75;97.20
60307;BME280;46155;52.364;6.580;2023-04-15T12:37:21;101213.63;;;9.76;97.07
60307;BME280;46155;52.364;6.580;2023-04-15T12:39:48;101226.34;;;9.83;97.15
60307;BME280;46155;52.364;6.580;2023-04-15T12:42:15;101214.25;;;9.85;96.97
60307;BME280;46155;52.364;6.580;2023-04-15T12:44:40;101212.44;;;9.84;96.85
60307;BME280;46155;52.364;6.580;2023-04-15T12:47:07;101223.56;;;9.93;96.12
60307;BME280;46155;52.364;6.580;2023-04-15T12:49:33;101227.34;;;9.85;96.49
60307;BME280;46155;52.364;6.580;2023-04-15T12:51:59;101226.34;;;9.83;97.18
60307;BME280;46155;52.364;6.580;2023-04-15T12:54:25;101236.84;;;9.83;96.82
60307;BME280;46155;52.364;6.580;2023-04-15T12:56:52;101233.63;;;9.87;97.70
60307;BME280;46155;52.364;6.580;2023-04-15T12:59:18;101232.75;;;9.75;97.77
60307;BME280;46155;52.364;6.580;2023-04-15T13:01:45;101242.09;;;9.83;98.71
60307;BME280;46155;52.364;6.580;2023-04-15T13:04:11;101243.25;;;9.75;98.59
60307;BME280;46155;52.364;6.580;2023-04-15T13:06:36;101239.00;;;9.52;100.00
60307;BME280;46155;52.364;6.580;2023-04-15T13:09:03;101233.09;;;9.42;100.00
60307;BME280;46155;52.364;6.580;2023-04-15T13:11:29;101243.34;;;9.39;100.00
60307;BME280;46155;52.364;6.580;2023-04-15T13:13:56;101248.81;;;9.54;100.00
60307;BME280;46155;52.364;6.580;2023-04-15T13:16:22;101251.16;;;9.51;100.00
60307;BME280;46155;52.364;6.580;2023-04-15T13:18:48;101253.53;;;9.72;100.00
60307;BME280;46155;52.364;6.580;2023-04-15T13:21:14;101254.31;;;9.71;100.00
60307;BME280;46155;52.364;6.580;2023-04-15T13:23:40;101243.91;;;9.47;100.00
60307;BME280;46155;52.364;6.580;2023-04-15T13:26:06;101257.50;;;9.41;100.00
60307;BME280;46155;52.364;6.580;2023-04-15T13:28:32;101261.00;;;9.42;100.00
60307;BME280;46155;52.364;6.580;2023-04-15T13:30:57;101257.25;;;9.50;100.00
60307;BME280;46155;52.364;6.580;2023-04-15T13:33:24;101245.63;;;9.35;100.00
60307;BME280;46155;52.364;6.580;2023-04-15T13:35:49;101256.78;;;9.44;100.00
60307;BME280;46155;52.364;6.580;2023-04-15T13:38:15;101255.56;;;9.39;100.00
60307;BME280;46155;52.364;6.580;2023-04-15T13:40:40;101261.69;;;9.39;100.00
60307;BME280;46155;52.364;6.580;2023-04-15T13:43:06;101254.28;;;9.34;100.00
60307;BME280;46155;52.364;6.580;2023-04-15T13:45:31;101256.56;;;9.41;100.00
60307;BME280;46155;52.364;6.580;2023-04-15T13:47:57;101271.56;;;9.55;100.00
60307;BME280;46155;52.364;6.580;2023-04-15T13:50:22;101277.69;;;9.68;100.00
60307;BME280;46155;52.364;6.580;2023-04-15T13:52:48;101279.59;;;9.82;100.00
60307;BME280;46155;52.364;6.580;2023-04-15T13:55:13;101275.19;;;9.81;99.91
60307;BME280;46155;52.364;6.580;2023-04-15T13:57:38;101276.13;;;9.70;100.00
60307;BME280;46155;52.364;6.580;2023-04-15T14:00:04;101284.56;;;9.65;99.55
60307;BME280;46155;52.364;6.580;2023-04-15T14:02:30;101271.09;;;9.73;100.00
60307;BME280;46155;52.364;6.580;2023-04-15T14:04:55;101280.69;;;9.60;99.17
60307;BME280;46155;52.364;6.580;2023-04-15T14:07:21;101292.44;;;9.65;100.00
60307;BME280;46155;52.364;6.580;2023-04-15T14:09:46;101289.22;;;9.70;100.00
60307;BME280;46155;52.364;6.580;2023-04-15T14:12:12;101288.56;;;9.60;99.27
60307;BME280;46155;52.364;6.580;2023-04-15T14:14:38;101277.69;;;9.68;99.32
60307;BME280;46155;52.364;6.580;2023-04-15T14:17:03;101286.81;;;9.61;99.71
60307;BME280;46155;52.364;6.580;2023-04-15T14:19:30;101298.34;;;9.51;100.00
60307;BME280;46155;52.364;6.580;2023-04-15T14:21:55;101293.94;;;9.50;100.00
60307;BME280;46155;52.364;6.580;2023-04-15T14:24:20;101296.66;;;9.52;100.00
60307;BME280;46155;52.364;6.580;2023-04-15T14:26:46;101304.34;;;9.74;99.95
60307;BME280;46155;52.364;6.580;2023-04-15T14:29:11;101303.28;;;9.58;99.95
60307;BME280;46155;52.364;6.580;2023-04-15T14:31:36;101316.25;;;9.45;100.00
60307;BME280;46155;52.364;6.580;2023-04-15T14:34:02;101321.94;;;9.51;100.00
60307;BME280;46155;52.364;6.580;2023-04-15T14:36:27;101321.03;;;9.51;100.00
60307;BME280;46155;52.364;6.580;2023-04-15T14:38:53;101313.66;;;9.33;100.00
60307;BME280;46155;52.364;6.580;2023-04-15T14:41:18;101311.16;;;9.35;100.00
60307;BME280;46155;52.364;6.580;2023-04-15T14:43:43;101330.16;;;9.44;100.00
60307;BME280;46155;52.364;6.580;2023-04-15T14:46:09;101329.25;;;9.43;100.00
60307;BME280;46155;52.364;6.580;2023-04-15T14:48:35;101327.78;;;9.35;100.00
60307;BME280;46155;52.364;6.580;2023-04-15T14:51:00;101329.50;;;9.35;100.00
60307;BME280;46155;52.364;6.580;2023-04-15T14:53:26;101349.31;;;9.31;100.00
60307;BME280;46155;52.364;6.580;2023-04-15T14:55:51;101344.41;;;9.24;100.00
60307;BME280;46155;52.364;6.580;2023-04-15T14:58:17;101354.09;;;9.25;100.00
60307;BME280;46155;52.364;6.580;2023-04-15T15:00:42;101356.38;;;9.20;100.00
60307;BME280;46155;52.364;6.580;2023-04-15T15:03:10;101360.56;;;9.18;100.00
60307;BME280;46155;52.364;6.580;2023-04-15T15:05:44;101356.81;;;9.26;100.00
60307;BME280;46155;52.364;6.580;2023-04-15T15:08:10;101351.13;;;9.44;100.00
60307;BME280;46155;52.364;6.580;2023-04-15T15:10:39;101355.34;;;9.42;100.00
60307;BME280;46155;52.364;6.580;2023-04-15T15:13:06;101361.84;;;9.47;100.00
60307;BME280;46155;52.364;6.580;2023-04-15T15:15:32;101361.72;;;9.34;100.00
60307;BME280;46155;52.364;6.580;2023-04-15T15:17:58;101358.88;;;9.42;100.00
60307;BME280;46155;52.364;6.580;2023-04-15T15:20:24;101371.41;;;9.23;100.00
60307;BME280;46155;52.364;6.580;2023-04-15T15:22:50;101373.81;;;9.32;100.00
60307;BME280;46155;52.364;6.580;2023-04-15T15:25:15;101368.19;;;9.27;100.00
60307;BME280;46155;52.364;6.580;2023-04-15T15:27:41;101373.91;;;9.09;100.00
60307;BME280;46155;52.364;6.580;2023-04-15T15:30:07;101375.50;;;9.07;100.00
60307;BME280;46155;52.364;6.580;2023-04-15T15:32:33;101375.13;;;9.03;100.00
60307;BME280;46155;52.364;6.580;2023-04-15T15:34:58;101381.53;;;9.06;100.00
60307;BME280;46155;52.364;6.580;2023-04-15T15:37:23;101381.31;;;9.15;100.00
60307;BME280;46155;52.364;6.580;2023-04-15T15:39:50;101398.56;;;8.89;100.00
60307;BME280;46155;52.364;6.580;2023-04-15T15:42:18;101388.56;;;8.95;100.00
60307;BME280;46155;52.364;6.580;2023-04-15T15:44:43;101395.72;;;8.86;100.00
60307;BME280;46155;52.364;6.580;2023-04-15T15:47:09;101395.94;;;8.77;100.00
60307;BME280;46155;52.364;6.580;2023-04-15T15:49:34;101411.03;;;8.70;100.00
60307;BME280;46155;52.364;6.580;2023-04-15T15:52:00;101408.88;;;8.76;100.00
60307;BME280;46155;52.364;6.580;2023-04-15T15:54:25;101401.84;;;8.75;100.00
60307;BME280;46155;52.364;6.580;2023-04-15T15:56:50;101401.59;;;8.72;100.00
60307;BME280;46155;52.364;6.580;2023-04-15T15:59:16;101418.41;;;8.64;100.00
60307;BME280;46155;52.364;6.580;2023-04-15T16:01:41;101401.97;;;8.54;100.00
60307;BME280;46155;52.364;6.580;2023-04-15T16:04:07;101420.16;;;8.53;100.00
60307;BME280;46155;52.364;6.580;2023-04-15T16:06:32;101417.00;;;8.57;100.00
60307;BME280;46155;52.364;6.580;2023-04-15T16:08:57;101421.91;;;8.64;100.00
60307;BME280;46155;52.364;6.580;2023-04-15T16:11:23;101428.56;;;8.49;100.00